地図

経路データ

SID SEASON NUMBER BASIN SUBBASIN NAME ISO_TIME NATURE LAT LON WMO_WIND WMO_PRES WMO_AGENCY TRACK_TYPE DIST2LAND LANDFALL IFLAG USA_AGENCY USA_ATCF_ID USA_LAT USA_LON USA_RECORD USA_STATUS USA_WIND USA_PRES USA_SSHS USA_R34_NE USA_R34_SE USA_R34_SW USA_R34_NW USA_R50_NE USA_R50_SE USA_R50_SW USA_R50_NW USA_R64_NE USA_R64_SE USA_R64_SW USA_R64_NW USA_POCI USA_ROCI USA_RMW USA_EYE TOKYO_LAT TOKYO_LON TOKYO_GRADE TOKYO_WIND TOKYO_PRES TOKYO_R50_DIR TOKYO_R50_LONG TOKYO_R50_SHORT TOKYO_R30_DIR TOKYO_R30_LONG TOKYO_R30_SHORT TOKYO_LAND CMA_LAT CMA_LON CMA_CAT CMA_WIND CMA_PRES HKO_LAT HKO_LON HKO_CAT HKO_WIND HKO_PRES NEWDELHI_LAT NEWDELHI_LON NEWDELHI_GRADE NEWDELHI_WIND NEWDELHI_PRES NEWDELHI_CI NEWDELHI_DP NEWDELHI_POCI REUNION_LAT REUNION_LON REUNION_TYPE REUNION_WIND REUNION_PRES REUNION_TNUM REUNION_CI REUNION_RMW REUNION_R34_NE REUNION_R34_SE REUNION_R34_SW REUNION_R34_NW REUNION_R50_NE REUNION_R50_SE REUNION_R50_SW REUNION_R50_NW REUNION_R64_NE REUNION_R64_SE REUNION_R64_SW REUNION_R64_NW BOM_LAT BOM_LON BOM_TYPE BOM_WIND BOM_PRES BOM_TNUM BOM_CI BOM_RMW BOM_R34_NE BOM_R34_SE BOM_R34_SW BOM_R34_NW BOM_R50_NE BOM_R50_SE BOM_R50_SW BOM_R50_NW BOM_R64_NE BOM_R64_SE BOM_R64_SW BOM_R64_NW BOM_ROCI BOM_POCI BOM_EYE BOM_POS_METHOD BOM_PRES_METHOD NADI_LAT NADI_LON NADI_CAT NADI_WIND NADI_PRES WELLINGTON_LAT WELLINGTON_LON WELLINGTON_WIND WELLINGTON_PRES DS824_LAT DS824_LON DS824_STAGE DS824_WIND DS824_PRES TD9636_LAT TD9636_LON TD9636_STAGE TD9636_WIND TD9636_PRES TD9635_LAT TD9635_LON TD9635_WIND TD9635_PRES TD9635_ROCI NEUMANN_LAT NEUMANN_LON NEUMANN_CLASS NEUMANN_WIND NEUMANN_PRES MLC_LAT MLC_LON MLC_CLASS MLC_WIND MLC_PRES USA_GUST BOM_GUST BOM_GUST_PER REUNION_GUST REUNION_GUST_PER USA_SEAHGT USA_SEARAD_NE USA_SEARAD_SE USA_SEARAD_SW USA_SEARAD_NW STORM_SPEED STORM_DIR
1912065S17120 1912 11 SI WA NOT_NAMED 1912-03-05 01:00:00 NR -17.0000 119.800 bom main 253 250 ______O_______ -1 -17.0000 119.800 3 163
1912065S17120 1912 11 SI WA NOT_NAMED 1912-03-05 03:00:00 NR -17.1000 119.841 main 250 235 ______P_______ -1 -17.1000 119.841 3 159
1912065S17120 1912 11 SI WA NOT_NAMED 1912-03-05 06:00:00 NR -17.2501 119.904 main 235 223 ______P_______ -1 -17.2501 119.904 3 158
1912065S17120 1912 11 SI WA NOT_NAMED 1912-03-05 09:00:00 NR -17.4001 119.966 main 223 185 ______P_______ -1 -17.4001 119.966 5 133
1912065S17120 1912 11 SI WA NOT_NAMED 1912-03-05 12:00:00 NR -17.6001 120.303 main 185 161 ______P___O___ -1 -17.5502 120.028 -17.8000 121.400 7 6 124
1912065S17120 1912 11 SI WA NOT_NAMED 1912-03-05 15:00:00 NR -17.7298 120.484 main 161 146 ______P___P___ -1 -17.7002 120.091 -17.7890 121.270 7 3 131
1912065S17120 1912 11 SI WA NOT_NAMED 1912-03-05 18:00:00 NR -17.8254 120.573 main 146 140 ______P___P___ -1 -17.8502 120.153 -17.7925 121.132 7 2 151
1912065S17120 1912 11 SI WA NOT_NAMED 1912-03-05 21:00:00 NR -17.9124 120.597 main 140 134 ______P___P___ -1 -18.0001 120.216 -17.8246 120.978 7 2 188
1912065S17120 1912 11 SI WA NOT_NAMED 1912-03-06 00:00:00 NR -18.0250 120.540 main 143 143 ______P___O___ -1 -18.1500 120.279 -17.9000 120.800 7 2 196
1912065S17120 1912 11 SI WA NOT_NAMED 1912-03-06 01:00:00 NR -18.0497 120.548 bom main 143 138 ______O___P___ -1 -18.2000 120.300 -17.9370 120.734 7 2 191
1912065S17120 1912 11 SI WA NOT_NAMED 1912-03-06 03:00:00 NR -18.1119 120.522 main 138 138 ______P___P___ -1 -18.2800 120.380 -18.0279 120.593 7 1 198
1912065S17120 1912 11 SI WA NOT_NAMED 1912-03-06 03:30:00 NR -18.1029 120.525 bom main 138 138 ______O___P___ -1 -18.3000 120.400 -18.0537 120.556 7 3 240
1912065S17120 1912 11 SI WA NOT_NAMED 1912-03-06 06:00:00 NR -18.1976 120.365 main 144 144 __________P___ -1 -18.1976 120.365 7 5 232
1912065S17120 1912 11 SI WA NOT_NAMED 1912-03-06 09:00:00 NR -18.3935 120.130 main 158 148 __________P___ -1 -18.3935 120.130 7 6 228
1912065S17120 1912 11 SI WA NOT_NAMED 1912-03-06 12:00:00 NR -18.6000 119.900 main 148 130 __________O___ -1 -18.6000 119.900 7 6 222
1912065S17120 1912 11 SI WA NOT_NAMED 1912-03-06 15:00:00 NR -18.8045 119.733 main 133 113 __________P___ -1 -18.8045 119.733 7 5 217
1912065S17120 1912 11 SI WA NOT_NAMED 1912-03-06 18:00:00 NR -19.0142 119.567 main 113 98 __________P___ -1 -19.0142 119.567 7 5 220
1912065S17120 1912 11 SI WA NOT_NAMED 1912-03-06 21:00:00 NR -19.2168 119.367 main 98 78 __________P___ -1 -19.2168 119.367 7 6 229
1912065S17120 1912 11 SI WA NOT_NAMED 1912-03-07 00:00:00 NR -19.4000 119.100 main 78 67 __________O___ -1 -19.4000 119.100 7 7 241
1912065S17120 1912 11 SI WA NOT_NAMED 1912-03-07 03:00:00 NR -19.5551 118.718 main 69 69 __________P___ -1 -19.5551 118.718 7 8 250
1912065S17120 1912 11 SI WA NOT_NAMED 1912-03-07 06:00:00 NR -19.6881 118.268 main 78 67 __________P___ -1 -19.6881 118.268 7 9 254
1912065S17120 1912 11 SI WA NOT_NAMED 1912-03-07 09:00:00 NR -19.8019 117.783 main 74 74 __________P___ -1 -19.8019 117.783 7 9 257
1912065S17120 1912 11 SI WA NOT_NAMED 1912-03-07 12:00:00 NR -19.9000 117.300 main 90 78 __________O___ -1 -19.9000 117.300 7 11 269
1912065S17120 1912 11 SI WA NOT_NAMED 1912-03-07 15:00:00 NR -19.8187 116.648 main 90 90 __________P___ -1 -19.8187 116.648 7 12 277
1912065S17120 1912 11 SI WA NOT_NAMED 1912-03-07 18:00:00 NR -19.7490 116.038 main 124 124 __________P___ -1 -19.7490 116.038 7 10 269
1912065S17120 1912 11 SI WA NOT_NAMED 1912-03-07 21:00:00 NR -19.8295 115.635 main 138 100 __________P___ -1 -19.8295 115.635 7 6 222
1912065S17120 1912 11 SI WA NOT_NAMED 1912-03-08 00:00:00 NR -20.2000 115.600 main 100 0 __________O___ -1 -20.2000 115.600 7 13 162
1912065S17120 1912 11 SI WA NOT_NAMED 1912-03-08 03:00:00 NR -21.0993 116.066 main 0 0 __________P___ -1 -21.0993 116.066 7 24 149
1912065S17120 1912 11 SI WA NOT_NAMED 1912-03-08 06:00:00 NR -22.2765 116.927 main 0 0 __________P___ -1 -22.2765 116.927 7 31 143
1912065S17120 1912 11 SI WA NOT_NAMED 1912-03-08 09:00:00 NR -23.5401 118.075 main 0 0 __________P___ -1 -23.5401 118.075 7 33 137
1912065S17120 1912 11 SI WA NOT_NAMED 1912-03-08 12:00:00 NR -24.7000 119.400 main 0 0 __________O___ -1 -24.7000 119.400 7 31 128
1912065S17120 1912 11 SI WA NOT_NAMED 1912-03-08 15:00:00 NR -25.4539 120.750 main 0 0 __________P___ -1 -25.4539 120.750 7 29 118
1912065S17120 1912 11 SI WA NOT_NAMED 1912-03-08 18:00:00 NR -26.0807 122.229 main 0 0 __________P___ -1 -26.0807 122.229 7 30 114
1912065S17120 1912 11 SI WA NOT_NAMED 1912-03-08 21:00:00 NR -26.6663 123.743 main 0 0 __________P___ -1 -26.6663 123.743 7 29 115
1912065S17120 1912 11 SI WA NOT_NAMED 1912-03-09 00:00:00 NR -27.3000 125.200 main 0 0 __________O___ -1 -27.3000 125.200 7 28 121
1912065S17120 1912 11 SI WA NOT_NAMED 1912-03-09 03:00:00 NR -28.1166 126.500 main 0 0 __________P___ -1 -28.1166 126.500 7 28 127
1912065S17120 1912 11 SI WA NOT_NAMED 1912-03-09 06:00:00 NR -28.9976 127.736 main 0 0 __________P___ -1 -28.9976 127.736 7 28 130
1912065S17120 1912 11 SI WA NOT_NAMED 1912-03-09 09:00:00 NR -29.9050 128.929 main 0 0 __________P___ -1 -29.9050 128.929 7 27 131
1912065S17120 1912 11 SI WA NOT_NAMED 1912-03-09 12:00:00 NR -30.8000 130.100 main 0 0 __________O___ -1 -30.8000 130.100 7 26 131
1912065S17120 1912 11 SI WA NOT_NAMED 1912-03-09 15:00:00 NR -31.6059 131.196 main 11 14 __________P___ -1 -31.6059 131.196 7 25 131
1912065S17120 1912 11 SI WA NOT_NAMED 1912-03-09 18:00:00 NR -32.3970 132.287 main 44 44 __________P___ -1 -32.3970 132.287 7 25 130
1912065S17120 1912 11 SI WA NOT_NAMED 1912-03-09 21:00:00 NR -33.1905 133.459 main 60 35 __________P___ -1 -33.1905 133.459 7 26 127
1912065S17120 1912 11 SI WA NOT_NAMED 1912-03-10 00:00:00 NR -34.0000 134.800 main 35 0 __________O___ -1 -34.0000 134.800 7 30 123
1912065S17120 1912 11 SP EA NOT_NAMED 1912-03-10 03:00:00 NR -34.8297 136.449 main 36 0 __________P___ -1 -34.8297 136.449 7 33 120
1912065S17120 1912 11 SP EA NOT_NAMED 1912-03-10 06:00:00 NR -35.6622 138.287 main 11 0 __________P___ -1 -35.6622 138.287 7 35 118
1912065S17120 1912 11 SP EA NOT_NAMED 1912-03-10 09:00:00 NR -36.4874 140.231 main 0 0 __________P___ -1 -36.4874 140.231 7 35 118
1912065S17120 1912 11 SP EA NOT_NAMED 1912-03-10 12:00:00 NR -37.3000 142.200 main 0 0 __________O___ -1 -37.3000 142.200 7 35 118
1912065S17120 1912 11 SP EA NOT_NAMED 1912-03-10 15:00:00 NR -38.1001 144.126 main 0 0 __________P___ -1 -38.1001 144.126 7 34 118
1912065S17120 1912 11 SP EA NOT_NAMED 1912-03-10 18:00:00 NR -38.8865 146.018 main 8 0 __________P___ -1 -38.8865 146.018 7 33 118
1912065S17120 1912 11 SP EA NOT_NAMED 1912-03-10 21:00:00 NR -39.6553 147.901 main 122 102 __________P___ -1 -39.6553 147.901 7 33 117
1912065S17120 1912 11 SP EA NOT_NAMED 1912-03-11 00:00:00 NR -40.4000 149.800 main 135 __________O___ -1 -40.4000 149.800 7 33 117

IBTrACS Databaseについて

本データベースは、米国NOAAが公開する1842年以降の世界の熱帯低気圧のベストトラックデータアーカイブInternational Best Track Archive for Climate Stewardship (IBTrACS)を、ウェブで閲覧しやすい形式に変換したものです。

最終更新日:2021-11-26